createdAt,value
2023-04-09T00:00:13.685Z,20.30
2023-04-09T00:02:40.918Z,20.25
2023-04-09T00:05:08.027Z,21.02
2023-04-09T00:07:34.725Z,21.05
2023-04-09T00:10:01.463Z,21.17
2023-04-09T00:12:30.217Z,23.48
2023-04-09T00:14:57.453Z,22.80
2023-04-09T00:17:24.338Z,20.95
2023-04-09T00:19:51.182Z,21.08
2023-04-09T00:22:17.837Z,19.75
2023-04-09T00:24:44.482Z,21.67
2023-04-09T00:27:11.146Z,21.65
2023-04-09T00:29:37.861Z,19.83
2023-04-09T00:32:04.773Z,21.10
2023-04-09T00:34:31.505Z,20.70
2023-04-09T00:36:58.166Z,20.73
2023-04-09T00:39:24.893Z,19.63
2023-04-09T00:41:59.264Z,20.67
2023-04-09T00:44:26.139Z,21.13
2023-04-09T00:46:54.045Z,21.63
2023-04-09T00:49:21.565Z,21.20
2023-04-09T00:51:48.772Z,20.33
2023-04-09T00:54:16.201Z,20.10
2023-04-09T00:56:43.870Z,20.88
2023-04-09T00:59:10.653Z,20.00
2023-04-09T01:01:37.467Z,20.00
2023-04-09T01:04:04.722Z,20.58
2023-04-09T01:07:12.944Z,20.23
2023-04-09T01:09:45.872Z,21.63
2023-04-09T01:12:15.386Z,20.35
2023-04-09T01:15:03.678Z,21.55
2023-04-09T01:17:52.871Z,21.35
2023-04-09T01:20:32.726Z,21.42
2023-04-09T01:23:17.832Z,20.55
2023-04-09T01:26:01.078Z,22.67
2023-04-09T01:28:39.288Z,20.42
2023-04-09T01:31:18.240Z,21.23
2023-04-09T01:33:45.757Z,21.42
2023-04-09T01:36:14.237Z,21.80
2023-04-09T01:38:42.948Z,20.77
2023-04-09T01:41:14.317Z,20.75
2023-04-09T01:43:42.188Z,22.60
2023-04-09T01:46:10.533Z,20.02
2023-04-09T01:48:37.954Z,21.67
2023-04-09T01:51:05.335Z,21.58
2023-04-09T01:53:31.989Z,20.85
2023-04-09T01:56:01.991Z,21.15
2023-04-09T01:58:28.746Z,20.77
2023-04-09T02:01:20.889Z,21.05
2023-04-09T02:03:54.522Z,21.25
2023-04-09T02:06:38.526Z,21.27
2023-04-09T02:09:08.284Z,20.90
2023-04-09T02:11:37.854Z,20.27
2023-04-09T02:14:05.892Z,20.45
2023-04-09T02:16:33.235Z,21.48
2023-04-09T02:19:01.317Z,20.05
2023-04-09T02:21:29.474Z,21.02
2023-04-09T02:23:56.350Z,20.95
2023-04-09T02:26:24.049Z,18.85
2023-04-09T02:28:51.123Z,17.95
2023-04-09T02:31:18.192Z,21.50
2023-04-09T02:33:44.971Z,20.83
2023-04-09T02:36:13.006Z,20.90
2023-04-09T02:38:43.419Z,21.35
2023-04-09T02:41:10.296Z,19.90
2023-04-09T02:43:37.332Z,20.73
2023-04-09T02:46:04.234Z,21.05
2023-04-09T02:48:30.892Z,22.13
2023-04-09T02:50:57.631Z,22.38
2023-04-09T02:53:24.336Z,20.90
2023-04-09T02:55:50.989Z,20.10
2023-04-09T02:58:17.834Z,20.55
2023-04-09T03:00:44.478Z,20.67
2023-04-09T03:03:11.514Z,21.17
2023-04-09T03:05:38.902Z,19.73
2023-04-09T03:08:05.730Z,18.70
2023-04-09T03:10:32.466Z,21.20
2023-04-09T03:12:59.151Z,20.02
2023-04-09T03:15:25.902Z,19.55
2023-04-09T03:17:52.636Z,19.88
2023-04-09T03:20:19.354Z,19.42
2023-04-09T03:22:46.006Z,18.70
2023-04-09T03:25:12.718Z,20.02
2023-04-09T03:27:39.372Z,19.38
2023-04-09T03:30:06.497Z,20.20
2023-04-09T03:32:33.253Z,19.33
2023-04-09T03:34:59.906Z,18.42
2023-04-09T03:37:26.626Z,19.23
2023-04-09T03:39:53.306Z,19.08
2023-04-09T03:42:20.221Z,19.38
2023-04-09T03:44:47.076Z,20.02
2023-04-09T03:47:13.781Z,19.52
2023-04-09T03:49:40.512Z,22.08
2023-04-09T03:52:07.580Z,23.48
2023-04-09T03:54:34.226Z,22.83
2023-04-09T03:57:01.440Z,21.20
2023-04-09T03:59:28.219Z,20.40
2023-04-09T04:01:54.910Z,19.45
2023-04-09T04:04:23.769Z,20.00
2023-04-09T04:06:50.978Z,19.67
2023-04-09T04:09:17.714Z,20.50
2023-04-09T04:11:44.359Z,20.85
2023-04-09T04:14:11.030Z,21.25
2023-04-09T04:16:37.701Z,20.83
2023-04-09T04:19:04.430Z,21.15
2023-04-09T04:21:31.499Z,19.95
2023-04-09T04:23:58.240Z,17.92
2023-04-09T04:26:25.274Z,17.67
2023-04-09T04:28:52.136Z,21.13
2023-04-09T04:31:19.026Z,20.70
2023-04-09T04:33:45.730Z,19.52
2023-04-09T04:36:14.024Z,19.02
2023-04-09T04:38:44.146Z,19.35
2023-04-09T04:41:11.479Z,20.25
2023-04-09T04:43:38.198Z,18.17
2023-04-09T04:46:06.152Z,19.02
2023-04-09T04:48:32.965Z,19.55
2023-04-09T04:51:01.271Z,19.00
2023-04-09T04:53:28.205Z,19.15
2023-04-09T04:55:55.158Z,19.33
2023-04-09T04:58:21.893Z,19.17
2023-04-09T05:00:48.634Z,18.50
2023-04-09T05:03:15.572Z,18.45
2023-04-09T05:05:42.374Z,17.80
2023-04-09T05:08:09.090Z,18.17
2023-04-09T05:10:35.858Z,17.35
2023-04-09T05:13:02.567Z,16.80
2023-04-09T05:15:29.328Z,17.58
2023-04-09T05:17:56.350Z,17.85
2023-04-09T05:20:23.144Z,16.92
2023-04-09T05:22:49.832Z,17.88
2023-04-09T05:25:16.643Z,18.10
2023-04-09T05:27:43.386Z,18.40
2023-04-09T05:30:10.450Z,17.10
2023-04-09T05:32:37.264Z,16.58
2023-04-09T05:35:04.337Z,16.30
2023-04-09T05:37:31.207Z,16.45
2023-04-09T05:39:57.964Z,16.20
2023-04-09T05:42:24.618Z,15.93
2023-04-09T05:44:51.250Z,17.15
2023-04-09T05:47:17.903Z,16.52
2023-04-09T05:49:44.550Z,15.02
2023-04-09T05:52:11.312Z,15.27
2023-04-09T05:54:38.023Z,14.82
2023-04-09T05:57:04.713Z,16.27
2023-04-09T05:59:31.364Z,15.88
2023-04-09T06:01:58.071Z,17.02
2023-04-09T06:04:25.014Z,18.95
2023-04-09T06:06:51.976Z,15.13
2023-04-09T06:09:18.690Z,16.58
2023-04-09T06:11:45.363Z,16.35
2023-04-09T06:14:17.992Z,15.40
2023-04-09T06:16:44.736Z,15.77
2023-04-09T06:19:12.581Z,16.25
2023-04-09T06:21:40.669Z,17.92
2023-04-09T06:24:07.458Z,16.45
2023-04-09T06:26:34.104Z,17.35
2023-04-09T06:29:00.749Z,15.85
2023-04-09T06:31:27.548Z,17.60
2023-04-09T06:33:54.922Z,16.20
2023-04-09T06:36:21.983Z,15.77
2023-04-09T06:38:48.627Z,15.63
2023-04-09T06:41:15.466Z,16.67
2023-04-09T06:43:42.238Z,16.65
2023-04-09T06:46:09.246Z,21.60
2023-04-09T06:48:36.088Z,19.83
2023-04-09T06:51:02.874Z,16.20
2023-04-09T06:53:29.569Z,16.77
2023-04-09T06:55:57.206Z,17.35
2023-04-09T06:58:24.204Z,25.38
2023-04-09T07:00:51.080Z,26.25
2023-04-09T07:03:17.933Z,26.92
2023-04-09T07:05:44.723Z,20.75
2023-04-09T07:08:11.795Z,17.83
2023-04-09T07:10:38.673Z,17.52
2023-04-09T07:13:05.419Z,17.02
2023-04-09T07:15:32.366Z,17.05
2023-04-09T07:17:59.518Z,16.45
2023-04-09T07:20:26.270Z,16.70
2023-04-09T07:22:52.916Z,16.75
2023-04-09T07:25:19.752Z,16.80
2023-04-09T07:27:46.664Z,18.30
2023-04-09T07:30:13.346Z,24.27
2023-04-09T07:32:40.196Z,20.65
2023-04-09T07:35:09.692Z,16.60
2023-04-09T07:37:36.449Z,16.67
2023-04-09T07:40:06.005Z,16.95
2023-04-09T07:42:32.810Z,16.17
2023-04-09T07:44:59.502Z,15.77
2023-04-09T07:47:26.960Z,15.80
2023-04-09T07:49:53.639Z,16.50
2023-04-09T07:52:20.360Z,16.83
2023-04-09T07:54:47.011Z,14.93
2023-04-09T07:57:13.700Z,15.27
2023-04-09T07:59:40.369Z,15.27
2023-04-09T08:02:07.681Z,14.30
2023-04-09T08:04:34.649Z,13.43
2023-04-09T08:07:01.393Z,13.18
2023-04-09T08:09:28.034Z,14.52
2023-04-09T08:11:54.728Z,13.60
2023-04-09T08:14:21.410Z,13.30
2023-04-09T08:16:49.790Z,13.25
2023-04-09T08:19:17.345Z,13.95
2023-04-09T08:21:44.284Z,15.23
2023-04-09T08:24:11.832Z,14.27
2023-04-09T08:26:39.655Z,13.35
2023-04-09T08:29:07.198Z,13.43
2023-04-09T08:31:34.474Z,12.93
2023-04-09T08:34:01.152Z,12.70
2023-04-09T08:36:27.965Z,12.20
2023-04-09T08:38:56.561Z,13.23
2023-04-09T08:41:25.585Z,12.13
2023-04-09T08:43:58.176Z,12.82
2023-04-09T08:46:26.440Z,12.82
2023-04-09T08:48:53.803Z,11.93
2023-04-09T08:51:22.901Z,12.88
2023-04-09T08:53:56.956Z,12.65
2023-04-09T08:56:24.365Z,13.68
2023-04-09T08:58:51.826Z,12.70
2023-04-09T09:01:29.808Z,12.57
2023-04-09T09:04:06.569Z,12.75
2023-04-09T09:06:38.665Z,12.48
2023-04-09T09:09:06.700Z,12.00
2023-04-09T09:11:35.382Z,10.88
2023-04-09T09:14:07.452Z,12.05
2023-04-09T09:16:39.865Z,10.93
2023-04-09T09:19:07.126Z,10.32
2023-04-09T09:21:34.783Z,10.68
2023-04-09T09:24:01.806Z,12.02
2023-04-09T09:26:30.101Z,10.48
2023-04-09T09:29:00.504Z,10.63
2023-04-09T09:31:27.417Z,10.30
2023-04-09T09:33:54.633Z,11.18
2023-04-09T09:36:50.898Z,11.15
2023-04-09T09:39:17.936Z,10.70
2023-04-09T09:41:46.100Z,8.77
2023-04-09T09:44:29.873Z,10.45
2023-04-09T09:46:57.504Z,10.55
2023-04-09T09:49:24.252Z,9.52
2023-04-09T09:51:53.118Z,9.27
2023-04-09T09:54:23.197Z,9.73
2023-04-09T09:56:52.596Z,9.25
2023-04-09T09:59:25.928Z,8.82
2023-04-09T10:02:00.369Z,8.13
2023-04-09T10:04:29.564Z,7.97
2023-04-09T10:06:57.830Z,9.32
2023-04-09T10:09:27.765Z,10.65
2023-04-09T10:11:55.946Z,18.30
2023-04-09T10:14:23.061Z,10.93
2023-04-09T10:16:49.974Z,8.23
2023-04-09T10:19:17.038Z,7.75
2023-04-09T10:21:47.669Z,6.03
2023-04-09T10:24:15.962Z,5.47
2023-04-09T10:26:46.937Z,6.40
2023-04-09T10:29:15.532Z,7.55
2023-04-09T10:31:55.143Z,8.18
2023-04-09T10:34:23.755Z,7.22
2023-04-09T10:36:55.429Z,6.60
2023-04-09T10:39:26.155Z,5.88
2023-04-09T10:41:54.760Z,6.65
2023-04-09T10:44:27.413Z,7.63
2023-04-09T10:46:55.300Z,8.15
2023-04-09T10:49:23.687Z,6.20
2023-04-09T10:52:13.779Z,6.60
2023-04-09T10:54:46.176Z,10.88
2023-04-09T10:57:22.175Z,8.80
2023-04-09T10:59:53.989Z,7.75
2023-04-09T11:02:38.979Z,5.88
2023-04-09T11:05:17.974Z,6.15
2023-04-09T11:07:58.239Z,5.55
2023-04-09T11:10:25.086Z,7.72
2023-04-09T11:12:51.824Z,6.03
2023-04-09T11:15:19.772Z,6.57
2023-04-09T11:17:47.948Z,5.93
2023-04-09T11:20:24.989Z,7.00
2023-04-09T11:22:54.248Z,6.72
2023-04-09T11:25:26.481Z,6.60
2023-04-09T11:27:54.110Z,6.65
2023-04-09T11:30:21.307Z,7.93
2023-04-09T11:32:49.558Z,9.48
2023-04-09T11:35:21.420Z,6.75
2023-04-09T11:37:49.973Z,6.07
2023-04-09T11:40:17.770Z,6.70
2023-04-09T11:42:45.881Z,7.15
2023-04-09T11:45:13.215Z,8.55
2023-04-09T11:47:43.701Z,7.72
2023-04-09T11:50:12.505Z,6.88
2023-04-09T11:52:41.196Z,7.15
2023-04-09T11:55:09.365Z,7.45
2023-04-09T11:57:39.769Z,6.10
2023-04-09T12:00:10.870Z,5.95
2023-04-09T12:02:39.207Z,5.90
2023-04-09T12:05:07.465Z,5.20
2023-04-09T12:07:34.480Z,7.88
2023-04-09T12:10:10.746Z,5.97
2023-04-09T12:12:56.222Z,7.13
2023-04-09T12:15:25.310Z,6.53
2023-04-09T12:17:54.981Z,5.55
2023-04-09T12:20:35.642Z,7.32
2023-04-09T12:23:04.173Z,5.82
2023-04-09T12:25:32.133Z,5.55
2023-04-09T12:27:59.442Z,6.18
2023-04-09T12:30:26.479Z,5.38
2023-04-09T12:32:54.752Z,5.40
2023-04-09T12:35:22.511Z,5.07
2023-04-09T12:37:49.647Z,4.85
2023-04-09T12:40:17.038Z,4.60
2023-04-09T12:42:45.451Z,4.47
2023-04-09T12:45:14.888Z,4.57
2023-04-09T12:47:41.813Z,5.68
2023-04-09T12:50:09.887Z,5.45
2023-04-09T12:52:36.700Z,5.15
2023-04-09T12:55:04.337Z,4.97
2023-04-09T12:57:31.273Z,4.18
2023-04-09T12:59:58.155Z,4.45
2023-04-09T13:02:25.112Z,5.00
2023-04-09T13:04:52.920Z,5.07
2023-04-09T13:07:20.527Z,4.55
2023-04-09T13:09:51.129Z,4.97
2023-04-09T13:12:17.929Z,5.50
2023-04-09T13:14:46.745Z,5.43
2023-04-09T13:17:13.843Z,5.28
2023-04-09T13:19:42.669Z,3.95
2023-04-09T13:22:10.392Z,3.38
2023-04-09T13:24:38.114Z,4.30
2023-04-09T13:27:06.074Z,4.40
2023-04-09T13:29:32.932Z,4.85
2023-04-09T13:32:01.786Z,4.97
2023-04-09T13:34:28.571Z,4.20
2023-04-09T13:36:55.307Z,4.55
2023-04-09T13:39:21.988Z,3.78
2023-04-09T13:41:48.782Z,4.35
2023-04-09T13:44:15.629Z,4.18
2023-04-09T13:46:42.379Z,5.47
2023-04-09T13:49:09.177Z,5.47
2023-04-09T13:51:35.952Z,4.50
2023-04-09T13:54:05.305Z,4.95
2023-04-09T13:56:32.732Z,5.78
2023-04-09T13:58:59.465Z,6.75
2023-04-09T14:01:28.225Z,5.32
2023-04-09T14:03:55.239Z,4.82
2023-04-09T14:06:22.255Z,5.97
2023-04-09T14:08:48.919Z,6.10
2023-04-09T14:11:16.706Z,6.57
2023-04-09T14:13:43.457Z,7.05
2023-04-09T14:16:10.322Z,5.40
2023-04-09T14:18:37.121Z,4.20
2023-04-09T14:21:03.898Z,4.80
2023-04-09T14:23:30.605Z,4.70
2023-04-09T14:25:57.279Z,4.70
2023-04-09T14:28:27.244Z,7.03
2023-04-09T14:30:54.269Z,5.47
2023-04-09T14:33:20.925Z,5.45
2023-04-09T14:35:47.649Z,5.03
2023-04-09T14:38:14.433Z,4.88
2023-04-09T14:40:41.156Z,5.53
2023-04-09T14:43:07.859Z,4.55
2023-04-09T14:45:34.525Z,4.20
2023-04-09T14:48:01.307Z,4.72
2023-04-09T14:50:30.925Z,5.90
2023-04-09T14:52:57.710Z,6.28
2023-04-09T14:55:25.763Z,5.95
2023-04-09T14:57:52.826Z,5.35
2023-04-09T15:00:20.094Z,5.80
2023-04-09T15:02:47.741Z,6.65
2023-04-09T15:05:14.865Z,6.18
2023-04-09T15:07:41.702Z,7.80
2023-04-09T15:10:09.066Z,6.57
2023-04-09T15:12:35.710Z,5.30
2023-04-09T15:15:06.875Z,6.03
2023-04-09T15:17:33.689Z,5.75
2023-04-09T15:20:00.520Z,7.00
2023-04-09T15:22:27.374Z,8.35
2023-04-09T15:24:54.238Z,5.40
2023-04-09T15:27:20.862Z,6.18
2023-04-09T15:29:47.492Z,5.47
2023-04-09T15:32:14.166Z,5.28
2023-04-09T15:34:40.786Z,5.13
2023-04-09T15:37:07.425Z,4.90
2023-04-09T15:39:35.028Z,4.95
2023-04-09T15:42:01.982Z,4.55
2023-04-09T15:44:28.652Z,4.50
2023-04-09T15:46:56.040Z,4.57
2023-04-09T15:49:23.329Z,8.55
2023-04-09T15:51:50.092Z,10.23
2023-04-09T15:54:16.785Z,5.22
2023-04-09T15:56:43.469Z,5.15
2023-04-09T15:59:10.817Z,6.57
2023-04-09T16:01:38.915Z,5.10
2023-04-09T16:04:05.946Z,5.55
2023-04-09T16:06:32.634Z,5.57
2023-04-09T16:08:59.395Z,4.43
2023-04-09T16:11:26.188Z,5.20
2023-04-09T16:13:53.148Z,5.05
2023-04-09T16:16:20.691Z,5.75
2023-04-09T16:18:47.594Z,5.10
2023-04-09T16:21:14.490Z,5.20
2023-04-09T16:23:41.458Z,7.03
2023-04-09T16:26:08.278Z,5.85
2023-04-09T16:28:34.977Z,5.38
2023-04-09T16:31:01.804Z,5.47
2023-04-09T16:33:28.475Z,5.53
2023-04-09T16:35:55.306Z,5.45
2023-04-09T16:38:23.599Z,5.32
2023-04-09T16:40:50.530Z,6.57
2023-04-09T16:43:17.195Z,6.15
2023-04-09T16:45:43.980Z,4.90
2023-04-09T16:48:12.570Z,4.65
2023-04-09T16:50:40.013Z,5.40
2023-04-09T16:53:07.398Z,4.78
2023-04-09T16:55:34.911Z,4.90
2023-04-09T16:58:01.694Z,5.55
2023-04-09T17:00:28.576Z,4.53
2023-04-09T17:02:57.587Z,5.22
2023-04-09T17:05:24.920Z,5.68
2023-04-09T17:07:53.476Z,5.40
2023-04-09T17:10:20.744Z,4.75
2023-04-09T17:12:48.109Z,6.13
2023-04-09T17:15:14.864Z,6.55
2023-04-09T17:17:41.610Z,7.22
2023-04-09T17:20:08.763Z,13.02
2023-04-09T17:22:35.663Z,5.63
2023-04-09T17:25:02.908Z,6.95
2023-04-09T17:27:29.538Z,5.38
2023-04-09T17:29:56.306Z,7.40
2023-04-09T17:32:22.989Z,6.78
2023-04-09T17:34:49.670Z,6.78
2023-04-09T17:37:16.373Z,5.18
2023-04-09T17:39:43.060Z,6.03
2023-04-09T17:42:11.816Z,6.63
2023-04-09T17:44:38.675Z,6.38
2023-04-09T17:47:07.278Z,5.50
2023-04-09T17:49:34.183Z,5.85
2023-04-09T17:52:01.055Z,5.03
2023-04-09T17:54:35.185Z,5.28
2023-04-09T17:57:04.038Z,5.20
2023-04-09T17:59:32.188Z,5.53
2023-04-09T18:01:59.130Z,6.35
2023-04-09T18:04:27.067Z,5.72
2023-04-09T18:06:54.859Z,6.03
2023-04-09T18:09:21.877Z,7.40
2023-04-09T18:11:49.001Z,6.65
2023-04-09T18:14:15.729Z,6.95
2023-04-09T18:16:42.867Z,8.75
2023-04-09T18:19:11.761Z,7.72
2023-04-09T18:21:38.665Z,8.82
2023-04-09T18:24:05.963Z,7.28
2023-04-09T18:26:33.834Z,7.60
2023-04-09T18:29:01.832Z,7.13
2023-04-09T18:31:28.645Z,7.30
2023-04-09T18:33:56.122Z,6.95
2023-04-09T18:36:22.988Z,8.38
2023-04-09T18:38:49.836Z,6.70
2023-04-09T18:41:26.579Z,6.75
2023-04-09T18:43:53.935Z,6.93
2023-04-09T18:46:20.690Z,9.05
2023-04-09T18:48:47.394Z,10.05
2023-04-09T18:51:14.614Z,9.35
2023-04-09T18:53:41.949Z,9.57
2023-04-09T18:56:08.893Z,8.95
2023-04-09T18:58:36.218Z,9.25
2023-04-09T19:01:11.175Z,8.15
2023-04-09T19:03:38.441Z,7.20
2023-04-09T19:06:17.864Z,6.93
2023-04-09T19:08:46.097Z,5.45
2023-04-09T19:11:13.933Z,7.25
2023-04-09T19:13:40.770Z,6.55
2023-04-09T19:16:09.291Z,7.03
2023-04-09T19:18:37.110Z,8.30
2023-04-09T19:21:04.804Z,7.45
2023-04-09T19:23:34.006Z,7.63
2023-04-09T19:26:00.855Z,7.28
2023-04-09T19:28:27.646Z,8.27
2023-04-09T19:30:54.309Z,8.23
2023-04-09T19:33:22.193Z,7.35
2023-04-09T19:35:49.673Z,8.70
2023-04-09T19:38:17.319Z,8.60
2023-04-09T19:40:44.677Z,8.75
2023-04-09T19:43:11.570Z,11.43
2023-04-09T19:45:39.141Z,11.88
2023-04-09T19:48:06.835Z,11.85
2023-04-09T19:50:41.150Z,11.75
2023-04-09T19:53:07.873Z,12.75
2023-04-09T19:55:34.877Z,11.00
2023-04-09T19:58:01.920Z,9.63
2023-04-09T20:00:28.781Z,9.07
2023-04-09T20:02:57.147Z,9.18
2023-04-09T20:05:24.148Z,9.88
2023-04-09T20:07:52.532Z,9.90
2023-04-09T20:10:19.743Z,10.00
2023-04-09T20:12:51.120Z,9.43
2023-04-09T20:15:20.091Z,9.90
2023-04-09T20:17:50.935Z,8.32
2023-04-09T20:20:20.797Z,8.20
2023-04-09T20:22:55.722Z,8.95
2023-04-09T20:25:24.203Z,9.85
2023-04-09T20:27:54.207Z,10.45
2023-04-09T20:30:21.291Z,9.20
2023-04-09T20:32:48.953Z,9.27
2023-04-09T20:35:16.045Z,8.80
2023-04-09T20:37:42.790Z,9.80
2023-04-09T20:40:10.923Z,11.23
2023-04-09T20:42:40.372Z,10.70
2023-04-09T20:45:10.954Z,11.07
2023-04-09T20:47:37.702Z,12.35
2023-04-09T20:50:04.936Z,15.02
2023-04-09T20:52:31.651Z,14.90
2023-04-09T20:54:58.420Z,15.07
2023-04-09T20:57:25.107Z,14.48
2023-04-09T20:59:53.726Z,12.15
2023-04-09T21:02:21.036Z,12.75
2023-04-09T21:04:47.841Z,13.90
2023-04-09T21:07:14.558Z,14.15
2023-04-09T21:09:41.445Z,14.30
2023-04-09T21:12:08.226Z,13.63
2023-04-09T21:14:35.025Z,13.55
2023-04-09T21:17:01.813Z,13.13
2023-04-09T21:19:28.585Z,13.27
2023-04-09T21:21:55.376Z,11.35
2023-04-09T21:24:22.520Z,11.13
2023-04-09T21:26:52.066Z,11.43
2023-04-09T21:29:21.028Z,12.40
2023-04-09T21:31:48.653Z,15.52
2023-04-09T21:34:15.600Z,12.32
2023-04-09T21:36:44.630Z,13.38
2023-04-09T21:39:11.444Z,11.85
2023-04-09T21:41:38.963Z,12.30
2023-04-09T21:44:08.198Z,11.90
2023-04-09T21:46:36.965Z,11.70
2023-04-09T21:49:04.395Z,11.45
2023-04-09T21:51:31.933Z,10.98
2023-04-09T21:54:09.715Z,10.00
2023-04-09T21:56:36.976Z,11.40
2023-04-09T21:59:04.026Z,14.27
2023-04-09T22:01:31.481Z,12.15
2023-04-09T22:03:59.571Z,11.90
2023-04-09T22:06:27.246Z,10.77
2023-04-09T22:08:56.822Z,11.23
2023-04-09T22:11:28.503Z,10.55
2023-04-09T22:13:58.522Z,11.00
2023-04-09T22:16:26.129Z,12.30
2023-04-09T22:18:54.202Z,11.75
2023-04-09T22:21:21.496Z,11.00
2023-04-09T22:23:48.271Z,10.60
2023-04-09T22:26:15.014Z,12.35
2023-04-09T22:28:41.803Z,10.90
2023-04-09T22:31:08.563Z,11.40
2023-04-09T22:33:35.435Z,10.40
2023-04-09T22:36:02.299Z,11.90
2023-04-09T22:38:29.128Z,11.23
2023-04-09T22:40:55.912Z,11.05
2023-04-09T22:43:22.790Z,11.88
2023-04-09T22:45:51.866Z,12.23
2023-04-09T22:48:19.293Z,11.35
2023-04-09T22:50:46.428Z,10.93
2023-04-09T22:53:18.576Z,11.40
2023-04-09T22:55:54.251Z,11.65
2023-04-09T22:58:21.050Z,12.98
2023-04-09T23:00:48.163Z,11.07
2023-04-09T23:03:15.183Z,12.55
2023-04-09T23:05:42.272Z,10.20
2023-04-09T23:08:09.850Z,11.93
2023-04-09T23:10:36.584Z,11.15
2023-04-09T23:13:03.479Z,12.57
2023-04-09T23:15:30.234Z,12.50
2023-04-09T23:17:57.017Z,11.93
2023-04-09T23:20:23.830Z,12.13
2023-04-09T23:22:50.551Z,11.52
2023-04-09T23:25:17.704Z,11.55
2023-04-09T23:27:44.868Z,12.10
2023-04-09T23:30:16.514Z,12.20
2023-04-09T23:32:44.818Z,12.95
2023-04-09T23:35:11.896Z,11.05
2023-04-09T23:37:42.648Z,12.13
2023-04-09T23:40:10.180Z,10.80
2023-04-09T23:42:36.975Z,11.10
2023-04-09T23:45:05.326Z,12.32
2023-04-09T23:47:33.866Z,11.70
2023-04-09T23:50:07.838Z,11.27
2023-04-09T23:52:36.630Z,11.88
2023-04-09T23:55:09.613Z,11.98
2023-04-09T23:57:36.355Z,11.98
